sensor_id;sensor_type;location;lat;lon;timestamp;pressure;altitude;pressure_sealevel;temperature;humidity
68873;BME280;55907;50.806;12.882;2022-12-20T00:00:57;978.4;;;3.3;80.7
68873;BME280;55907;50.806;12.882;2022-12-20T00:04:01;978.3;;;3.2;81.2
68873;BME280;55907;50.806;12.882;2022-12-20T00:07:00;978.2;;;3.2;81.3
68873;BME280;55907;50.806;12.882;2022-12-20T00:10:02;978.2;;;3.3;81.0
68873;BME280;55907;50.806;12.882;2022-12-20T00:13:04;978.2;;;3.3;81.4
68873;BME280;55907;50.806;12.882;2022-12-20T00:16:08;978.1;;;3.3;81.4
68873;BME280;55907;50.806;12.882;2022-12-20T00:19:09;978.1;;;3.3;81.8
68873;BME280;55907;50.806;12.882;2022-12-20T00:22:08;978.1;;;3.4;81.8
68873;BME280;55907;50.806;12.882;2022-12-20T00:25:10;978.0;;;3.4;83.3
68873;BME280;55907;50.806;12.882;2022-12-20T00:28:11;978.0;;;3.6;84.0
68873;BME280;55907;50.806;12.882;2022-12-20T00:31:15;977.9;;;3.9;83.4
68873;BME280;55907;50.806;12.882;2022-12-20T00:34:15;977.8;;;4.1;83.5
68873;BME280;55907;50.806;12.882;2022-12-20T00:37:16;977.8;;;4.3;83.0
68873;BME280;55907;50.806;12.882;2022-12-20T00:40:18;977.8;;;4.5;82.4
68873;BME280;55907;50.806;12.882;2022-12-20T00:43:19;977.9;;;4.6;82.3
68873;BME280;55907;50.806;12.882;2022-12-20T00:46:21;977.9;;;4.7;81.6
68873;BME280;55907;50.806;12.882;2022-12-20T00:49:23;978.0;;;4.7;80.3
68873;BME280;55907;50.806;12.882;2022-12-20T00:52:24;977.9;;;4.6;80.8
68873;BME280;55907;50.806;12.882;2022-12-20T00:55:25;977.9;;;4.6;81.1
68873;BME280;55907;50.806;12.882;2022-12-20T00:58:27;978.0;;;4.5;81.3
68873;BME280;55907;50.806;12.882;2022-12-20T01:01:31;978.0;;;4.6;81.7
68873;BME280;55907;50.806;12.882;2022-12-20T01:04:30;978.0;;;4.7;81.5
68873;BME280;55907;50.806;12.882;2022-12-20T01:07:32;977.9;;;4.8;81.3
68873;BME280;55907;50.806;12.882;2022-12-20T01:10:33;978.0;;;4.8;80.8
68873;BME280;55907;50.806;12.882;2022-12-20T01:13:37;977.9;;;4.8;81.2
68873;BME280;55907;50.806;12.882;2022-12-20T01:16:38;977.9;;;5.0;80.7
68873;BME280;55907;50.806;12.882;2022-12-20T01:19:38;977.9;;;5.2;80.3
68873;BME280;55907;50.806;12.882;2022-12-20T01:22:39;977.9;;;5.2;80.1
68873;BME280;55907;50.806;12.882;2022-12-20T01:25:41;978.0;;;5.2;79.5
68873;BME280;55907;50.806;12.882;2022-12-20T01:28:44;977.9;;;5.2;79.7
68873;BME280;55907;50.806;12.882;2022-12-20T01:31:44;977.8;;;5.1;79.7
68873;BME280;55907;50.806;12.882;2022-12-20T01:34:46;977.9;;;5.1;79.5
68873;BME280;55907;50.806;12.882;2022-12-20T01:37:47;977.9;;;5.1;80.0
68873;BME280;55907;50.806;12.882;2022-12-20T01:40:49;977.8;;;5.2;79.9
68873;BME280;55907;50.806;12.882;2022-12-20T01:43:52;977.8;;;5.2;79.7
68873;BME280;55907;50.806;12.882;2022-12-20T01:46:52;977.9;;;5.3;79.7
68873;BME280;55907;50.806;12.882;2022-12-20T01:49:55;977.9;;;5.4;79.3
68873;BME280;55907;50.806;12.882;2022-12-20T01:52:55;978.0;;;5.4;79.0
68873;BME280;55907;50.806;12.882;2022-12-20T01:55:58;977.9;;;5.4;79.1
68873;BME280;55907;50.806;12.882;2022-12-20T01:58:59;978.0;;;5.4;78.9
68873;BME280;55907;50.806;12.882;2022-12-20T02:02:02;977.9;;;5.4;79.4
68873;BME280;55907;50.806;12.882;2022-12-20T02:05:01;978.0;;;5.4;79.2
68873;BME280;55907;50.806;12.882;2022-12-20T02:08:04;977.9;;;5.3;79.2
68873;BME280;55907;50.806;12.882;2022-12-20T02:11:11;977.8;;;5.3;79.4
68873;BME280;55907;50.806;12.882;2022-12-20T02:14:13;977.8;;;5.3;79.3
68873;BME280;55907;50.806;12.882;2022-12-20T02:17:17;977.8;;;5.3;79.5
68873;BME280;55907;50.806;12.882;2022-12-20T02:23:21;977.8;;;5.3;79.1
68873;BME280;55907;50.806;12.882;2022-12-20T02:26:18;977.8;;;5.4;79.0
68873;BME280;55907;50.806;12.882;2022-12-20T02:29:21;977.8;;;5.4;78.6
68873;BME280;55907;50.806;12.882;2022-12-20T02:32:19;977.7;;;5.3;78.5
68873;BME280;55907;50.806;12.882;2022-12-20T02:35:20;977.7;;;5.3;78.5
68873;BME280;55907;50.806;12.882;2022-12-20T02:38:29;977.6;;;5.3;78.2
68873;BME280;55907;50.806;12.882;2022-12-20T02:41:22;977.6;;;5.2;78.1
68873;BME280;55907;50.806;12.882;2022-12-20T02:44:24;977.6;;;5.0;78.9
68873;BME280;55907;50.806;12.882;2022-12-20T02:47:27;977.6;;;5.0;79.7
68873;BME280;55907;50.806;12.882;2022-12-20T02:50:29;977.6;;;5.0;79.6
68873;BME280;55907;50.806;12.882;2022-12-20T02:53:26;977.6;;;5.1;80.2
68873;BME280;55907;50.806;12.882;2022-12-20T02:56:31;977.6;;;5.2;81.8
68873;BME280;55907;50.806;12.882;2022-12-20T03:02:31;977.6;;;5.5;81.4
68873;BME280;55907;50.806;12.882;2022-12-20T03:08:34;977.4;;;5.9;80.4
68873;BME280;55907;50.806;12.882;2022-12-20T03:11:36;977.4;;;6.1;80.3
68873;BME280;55907;50.806;12.882;2022-12-20T03:14:37;977.3;;;6.3;80.2
68873;BME280;55907;50.806;12.882;2022-12-20T03:17:38;977.4;;;6.5;79.9
68873;BME280;55907;50.806;12.882;2022-12-20T03:20:40;977.4;;;6.7;79.6
68873;BME280;55907;50.806;12.882;2022-12-20T03:23:41;977.4;;;7.0;79.0
68873;BME280;55907;50.806;12.882;2022-12-20T03:26:43;977.4;;;7.2;78.6
68873;BME280;55907;50.806;12.882;2022-12-20T03:29:44;977.4;;;7.4;78.0
68873;BME280;55907;50.806;12.882;2022-12-20T03:32:47;977.4;;;7.6;77.8
68873;BME280;55907;50.806;12.882;2022-12-20T03:35:48;977.4;;;7.7;77.4
68873;BME280;55907;50.806;12.882;2022-12-20T03:38:49;977.3;;;7.8;76.9
68873;BME280;55907;50.806;12.882;2022-12-20T03:41:50;977.4;;;7.8;77.4
68873;BME280;55907;50.806;12.882;2022-12-20T03:47:53;977.3;;;8.0;76.9
68873;BME280;55907;50.806;12.882;2022-12-20T03:50:55;977.3;;;8.2;77.1
68873;BME280;55907;50.806;12.882;2022-12-20T03:56:58;977.2;;;8.2;77.3
68873;BME280;55907;50.806;12.882;2022-12-20T04:00:00;977.2;;;8.2;77.5
68873;BME280;55907;50.806;12.882;2022-12-20T04:03:01;977.3;;;8.2;77.6
68873;BME280;55907;50.806;12.882;2022-12-20T04:06:03;977.2;;;8.2;77.6
68873;BME280;55907;50.806;12.882;2022-12-20T04:09:05;977.2;;;8.2;77.7
68873;BME280;55907;50.806;12.882;2022-12-20T04:12:06;977.2;;;8.3;77.8
68873;BME280;55907;50.806;12.882;2022-12-20T04:15:07;977.2;;;8.3;78.0
68873;BME280;55907;50.806;12.882;2022-12-20T04:21:12;977.1;;;8.3;78.3
68873;BME280;55907;50.806;12.882;2022-12-20T04:24:12;977.1;;;8.3;78.3
68873;BME280;55907;50.806;12.882;2022-12-20T04:27:13;977.1;;;8.4;78.4
68873;BME280;55907;50.806;12.882;2022-12-20T04:30:15;977.1;;;8.4;78.3
68873;BME280;55907;50.806;12.882;2022-12-20T04:33:17;977.1;;;8.4;78.4
68873;BME280;55907;50.806;12.882;2022-12-20T04:36:19;977.1;;;8.4;78.7
68873;BME280;55907;50.806;12.882;2022-12-20T04:39:19;977.0;;;8.4;79.2
68873;BME280;55907;50.806;12.882;2022-12-20T04:42:21;976.9;;;8.4;80.0
68873;BME280;55907;50.806;12.882;2022-12-20T04:45:22;977.0;;;8.4;80.1
68873;BME280;55907;50.806;12.882;2022-12-20T04:48:26;976.9;;;8.4;80.8
68873;BME280;55907;50.806;12.882;2022-12-20T04:51:26;976.9;;;8.4;80.5
68873;BME280;55907;50.806;12.882;2022-12-20T04:54:27;976.9;;;8.3;80.3
68873;BME280;55907;50.806;12.882;2022-12-20T04:57:28;976.8;;;8.1;79.1
68873;BME280;55907;50.806;12.882;2022-12-20T05:00:30;976.8;;;7.9;81.1
68873;BME280;55907;50.806;12.882;2022-12-20T05:03:32;976.8;;;7.7;79.5
68873;BME280;55907;50.806;12.882;2022-12-20T05:06:33;976.7;;;7.5;78.9
68873;BME280;55907;50.806;12.882;2022-12-20T05:09:35;976.7;;;7.2;78.5
68873;BME280;55907;50.806;12.882;2022-12-20T05:12:36;976.7;;;6.8;79.1
68873;BME280;55907;50.806;12.882;2022-12-20T05:15:38;976.7;;;6.6;79.9
68873;BME280;55907;50.806;12.882;2022-12-20T05:18:39;976.7;;;6.4;80.3
68873;BME280;55907;50.806;12.882;2022-12-20T05:21:41;976.7;;;6.2;81.0
68873;BME280;55907;50.806;12.882;2022-12-20T05:24:42;976.7;;;6.1;82.2
68873;BME280;55907;50.806;12.882;2022-12-20T05:27:44;976.6;;;6.0;82.1
68873;BME280;55907;50.806;12.882;2022-12-20T05:30:45;976.6;;;5.9;83.4
68873;BME280;55907;50.806;12.882;2022-12-20T05:33:47;976.6;;;5.8;83.4
68873;BME280;55907;50.806;12.882;2022-12-20T05:36:49;976.5;;;5.8;85.4
68873;BME280;55907;50.806;12.882;2022-12-20T05:39:50;976.5;;;5.8;86.1
68873;BME280;55907;50.806;12.882;2022-12-20T05:42:51;976.5;;;5.9;85.6
68873;BME280;55907;50.806;12.882;2022-12-20T05:45:53;976.5;;;5.9;85.1
68873;BME280;55907;50.806;12.882;2022-12-20T05:48:55;976.6;;;5.9;84.2
68873;BME280;55907;50.806;12.882;2022-12-20T05:51:56;976.5;;;5.9;84.0
68873;BME280;55907;50.806;12.882;2022-12-20T05:54:57;976.5;;;5.8;83.7
68873;BME280;55907;50.806;12.882;2022-12-20T05:57:59;976.5;;;5.7;84.1
68873;BME280;55907;50.806;12.882;2022-12-20T06:01:02;976.5;;;5.7;86.7
68873;BME280;55907;50.806;12.882;2022-12-20T06:04:02;976.5;;;5.9;86.9
68873;BME280;55907;50.806;12.882;2022-12-20T06:07:04;976.6;;;6.0;87.7
68873;BME280;55907;50.806;12.882;2022-12-20T06:10:06;976.6;;;6.2;87.1
68873;BME280;55907;50.806;12.882;2022-12-20T06:16:08;976.6;;;6.5;86.9
68873;BME280;55907;50.806;12.882;2022-12-20T06:19:10;976.6;;;6.7;86.5
68873;BME280;55907;50.806;12.882;2022-12-20T06:22:11;976.5;;;6.9;85.8
68873;BME280;55907;50.806;12.882;2022-12-20T06:25:13;976.5;;;7.0;85.5
68873;BME280;55907;50.806;12.882;2022-12-20T06:28:14;976.5;;;7.1;85.0
68873;BME280;55907;50.806;12.882;2022-12-20T06:31:16;976.6;;;7.1;84.5
68873;BME280;55907;50.806;12.882;2022-12-20T06:34:18;976.5;;;7.2;83.9
68873;BME280;55907;50.806;12.882;2022-12-20T06:37:19;976.6;;;7.2;83.4
68873;BME280;55907;50.806;12.882;2022-12-20T06:40:21;976.6;;;7.2;83.0
68873;BME280;55907;50.806;12.882;2022-12-20T06:43:22;976.6;;;7.3;82.4
68873;BME280;55907;50.806;12.882;2022-12-20T06:46:24;976.6;;;7.2;82.0
68873;BME280;55907;50.806;12.882;2022-12-20T06:49:25;976.5;;;7.2;81.6
68873;BME280;55907;50.806;12.882;2022-12-20T06:52:27;976.4;;;7.1;81.5
68873;BME280;55907;50.806;12.882;2022-12-20T06:55:28;976.4;;;7.0;81.7
68873;BME280;55907;50.806;12.882;2022-12-20T06:58:30;976.4;;;7.0;81.6
68873;BME280;55907;50.806;12.882;2022-12-20T07:01:31;976.4;;;6.9;81.8
68873;BME280;55907;50.806;12.882;2022-12-20T07:04:33;976.3;;;6.9;81.9
68873;BME280;55907;50.806;12.882;2022-12-20T07:07:34;976.4;;;6.8;81.8
68873;BME280;55907;50.806;12.882;2022-12-20T07:10:36;976.4;;;6.8;81.7
68873;BME280;55907;50.806;12.882;2022-12-20T07:13:37;976.3;;;6.8;81.5
68873;BME280;55907;50.806;12.882;2022-12-20T07:16:39;976.5;;;6.7;81.3
68873;BME280;55907;50.806;12.882;2022-12-20T07:19:41;976.5;;;6.7;81.1
68873;BME280;55907;50.806;12.882;2022-12-20T07:22:42;976.4;;;6.6;81.2
68873;BME280;55907;50.806;12.882;2022-12-20T07:25:52;976.2;;;6.6;81.1
68873;BME280;55907;50.806;12.882;2022-12-20T07:28:45;976.2;;;6.4;81.0
68873;BME280;55907;50.806;12.882;2022-12-20T07:31:47;976.3;;;6.4;80.9
68873;BME280;55907;50.806;12.882;2022-12-20T07:37:50;976.2;;;6.3;80.8
68873;BME280;55907;50.806;12.882;2022-12-20T07:40:51;976.2;;;6.2;81.1
68873;BME280;55907;50.806;12.882;2022-12-20T07:43:53;976.3;;;6.1;81.7
68873;BME280;55907;50.806;12.882;2022-12-20T07:46:54;976.1;;;6.1;81.2
68873;BME280;55907;50.806;12.882;2022-12-20T07:49:56;976.2;;;6.1;81.1
68873;BME280;55907;50.806;12.882;2022-12-20T07:52:58;976.2;;;6.1;81.1
68873;BME280;55907;50.806;12.882;2022-12-20T07:56:00;976.2;;;6.0;81.3
68873;BME280;55907;50.806;12.882;2022-12-20T07:59:02;976.1;;;6.0;81.3
68873;BME280;55907;50.806;12.882;2022-12-20T08:02:03;976.1;;;6.0;81.2
68873;BME280;55907;50.806;12.882;2022-12-20T08:05:04;976.2;;;6.0;81.1
68873;BME280;55907;50.806;12.882;2022-12-20T08:08:05;976.2;;;6.1;81.0
68873;BME280;55907;50.806;12.882;2022-12-20T08:11:08;976.1;;;6.1;80.7
68873;BME280;55907;50.806;12.882;2022-12-20T08:14:08;976.1;;;6.2;80.2
68873;BME280;55907;50.806;12.882;2022-12-20T08:17:10;976.2;;;6.3;79.6
68873;BME280;55907;50.806;12.882;2022-12-20T08:23:13;976.2;;;6.6;77.9
68873;BME280;55907;50.806;12.882;2022-12-20T08:26:14;976.2;;;6.8;77.4
68873;BME280;55907;50.806;12.882;2022-12-20T08:29:16;976.2;;;6.9;76.5
68873;BME280;55907;50.806;12.882;2022-12-20T08:32:17;976.2;;;7.0;75.8
68873;BME280;55907;50.806;12.882;2022-12-20T08:35:19;976.1;;;6.9;76.1
68873;BME280;55907;50.806;12.882;2022-12-20T08:38:20;976.2;;;6.9;75.6
68873;BME280;55907;50.806;12.882;2022-12-20T08:41:22;976.1;;;6.8;75.1
68873;BME280;55907;50.806;12.882;2022-12-20T08:44:24;976.2;;;6.9;75.3
68873;BME280;55907;50.806;12.882;2022-12-20T08:47:25;976.3;;;6.9;75.3
68873;BME280;55907;50.806;12.882;2022-12-20T08:50:27;976.2;;;6.9;74.4
68873;BME280;55907;50.806;12.882;2022-12-20T08:53:29;976.2;;;7.0;74.5
68873;BME280;55907;50.806;12.882;2022-12-20T08:56:30;976.2;;;7.0;74.2
68873;BME280;55907;50.806;12.882;2022-12-20T08:59:31;976.1;;;6.9;74.2
68873;BME280;55907;50.806;12.882;2022-12-20T09:02:33;976.2;;;6.8;74.4
68873;BME280;55907;50.806;12.882;2022-12-20T09:05:34;976.1;;;6.8;74.1
68873;BME280;55907;50.806;12.882;2022-12-20T09:11:38;976.1;;;6.7;74.5
68873;BME280;55907;50.806;12.882;2022-12-20T09:14:39;976.1;;;6.5;74.9
68873;BME280;55907;50.806;12.882;2022-12-20T09:17:40;976.1;;;6.6;75.5
68873;BME280;55907;50.806;12.882;2022-12-20T09:20:42;976.1;;;6.8;75.0
68873;BME280;55907;50.806;12.882;2022-12-20T09:23:44;976.1;;;6.9;74.6
68873;BME280;55907;50.806;12.882;2022-12-20T09:26:45;976.1;;;7.0;74.2
68873;BME280;55907;50.806;12.882;2022-12-20T09:29:47;976.2;;;7.0;74.2
68873;BME280;55907;50.806;12.882;2022-12-20T09:32:48;976.2;;;6.9;73.7
68873;BME280;55907;50.806;12.882;2022-12-20T09:35:50;976.3;;;6.9;74.2
68873;BME280;55907;50.806;12.882;2022-12-20T09:38:53;976.2;;;6.9;73.8
68873;BME280;55907;50.806;12.882;2022-12-20T09:41:53;976.1;;;7.0;73.9
68873;BME280;55907;50.806;12.882;2022-12-20T09:44:58;976.2;;;7.1;73.8
68873;BME280;55907;50.806;12.882;2022-12-20T09:47:56;976.2;;;7.3;73.6
68873;BME280;55907;50.806;12.882;2022-12-20T09:51:06;976.2;;;7.5;73.0
68873;BME280;55907;50.806;12.882;2022-12-20T09:54:05;976.1;;;7.7;72.5
68873;BME280;55907;50.806;12.882;2022-12-20T09:57:05;976.1;;;7.7;72.2
68873;BME280;55907;50.806;12.882;2022-12-20T10:00:07;976.1;;;7.7;72.2
68873;BME280;55907;50.806;12.882;2022-12-20T10:03:03;976.1;;;7.7;72.3
68873;BME280;55907;50.806;12.882;2022-12-20T10:06:09;976.1;;;7.7;72.2
68873;BME280;55907;50.806;12.882;2022-12-20T10:09:21;976.1;;;7.6;71.9
68873;BME280;55907;50.806;12.882;2022-12-20T10:12:17;976.0;;;7.6;71.9
68873;BME280;55907;50.806;12.882;2022-12-20T10:15:16;976.0;;;7.4;71.9
68873;BME280;55907;50.806;12.882;2022-12-20T10:18:21;976.0;;;7.4;72.5
68873;BME280;55907;50.806;12.882;2022-12-20T10:21:18;976.0;;;7.3;72.1
68873;BME280;55907;50.806;12.882;2022-12-20T10:24:17;976.0;;;7.3;72.5
68873;BME280;55907;50.806;12.882;2022-12-20T10:27:18;975.9;;;7.2;72.8
68873;BME280;55907;50.806;12.882;2022-12-20T10:30:19;975.9;;;7.1;73.0
68873;BME280;55907;50.806;12.882;2022-12-20T10:33:20;975.8;;;7.1;73.4
68873;BME280;55907;50.806;12.882;2022-12-20T10:36:22;975.8;;;7.0;73.7
68873;BME280;55907;50.806;12.882;2022-12-20T10:39:39;975.8;;;7.0;74.1
68873;BME280;55907;50.806;12.882;2022-12-20T10:42:30;975.7;;;7.0;74.5
68873;BME280;55907;50.806;12.882;2022-12-20T10:45:32;975.7;;;7.2;74.1
68873;BME280;55907;50.806;12.882;2022-12-20T10:48:30;975.7;;;7.3;73.8
68873;BME280;55907;50.806;12.882;2022-12-20T10:51:27;975.5;;;7.4;73.1
68873;BME280;55907;50.806;12.882;2022-12-20T10:54:32;975.5;;;7.6;72.1
68873;BME280;55907;50.806;12.882;2022-12-20T10:57:31;975.4;;;7.7;71.3
68873;BME280;55907;50.806;12.882;2022-12-20T11:00:33;975.2;;;7.8;71.7
68873;BME280;55907;50.806;12.882;2022-12-20T11:03:53;975.1;;;8.0;70.7
68873;BME280;55907;50.806;12.882;2022-12-20T11:06:42;975.2;;;8.1;70.4
68873;BME280;55907;50.806;12.882;2022-12-20T11:09:37;975.1;;;8.0;70.4
68873;BME280;55907;50.806;12.882;2022-12-20T11:12:51;975.0;;;8.1;70.6
68873;BME280;55907;50.806;12.882;2022-12-20T11:15:47;975.0;;;8.2;70.4
68873;BME280;55907;50.806;12.882;2022-12-20T11:18:49;975.0;;;8.3;70.6
68873;BME280;55907;50.806;12.882;2022-12-20T11:19:29;975.0;;;8.4;70.1
68873;BME280;55907;50.806;12.882;2022-12-20T11:21:50;975.0;;;8.4;70.3
68873;BME280;55907;50.806;12.882;2022-12-20T11:24:51;974.9;;;8.5;70.4
68873;BME280;55907;50.806;12.882;2022-12-20T11:27:56;975.0;;;8.7;70.1
68873;BME280;55907;50.806;12.882;2022-12-20T11:30:53;974.9;;;8.9;69.5
68873;BME280;55907;50.806;12.882;2022-12-20T11:33:58;974.8;;;9.4;68.7
68873;BME280;55907;50.806;12.882;2022-12-20T11:36:58;974.8;;;9.7;68.5
68873;BME280;55907;50.806;12.882;2022-12-20T11:39:59;974.9;;;10.0;66.9
68873;BME280;55907;50.806;12.882;2022-12-20T11:46:01;974.7;;;10.4;65.2
68873;BME280;55907;50.806;12.882;2022-12-20T11:49:04;974.7;;;10.5;64.5
68873;BME280;55907;50.806;12.882;2022-12-20T11:52:02;974.6;;;10.5;63.4
68873;BME280;55907;50.806;12.882;2022-12-20T11:55:06;974.5;;;10.6;63.6
68873;BME280;55907;50.806;12.882;2022-12-20T11:58:05;974.5;;;10.6;63.3
68873;BME280;55907;50.806;12.882;2022-12-20T12:01:06;974.5;;;10.7;63.1
68873;BME280;55907;50.806;12.882;2022-12-20T12:04:11;974.5;;;10.8;63.0
68873;BME280;55907;50.806;12.882;2022-12-20T12:07:08;974.5;;;10.9;62.7
68873;BME280;55907;50.806;12.882;2022-12-20T12:10:13;974.3;;;10.9;62.4
68873;BME280;55907;50.806;12.882;2022-12-20T12:13:13;974.3;;;11.1;62.1
68873;BME280;55907;50.806;12.882;2022-12-20T12:16:12;974.2;;;11.2;62.1
68873;BME280;55907;50.806;12.882;2022-12-20T12:19:12;974.1;;;11.2;61.6
68873;BME280;55907;50.806;12.882;2022-12-20T12:22:15;974.0;;;11.2;61.4
68873;BME280;55907;50.806;12.882;2022-12-20T12:25:16;974.1;;;11.1;61.1
68873;BME280;55907;50.806;12.882;2022-12-20T12:28:17;974.2;;;11.1;61.3
68873;BME280;55907;50.806;12.882;2022-12-20T12:34:28;974.3;;;11.1;60.7
68873;BME280;55907;50.806;12.882;2022-12-20T12:37:30;974.3;;;11.2;60.4
68873;BME280;55907;50.806;12.882;2022-12-20T12:40:38;974.2;;;11.3;60.1
68873;BME280;55907;50.806;12.882;2022-12-20T12:43:40;974.2;;;11.3;59.5
68873;BME280;55907;50.806;12.882;2022-12-20T12:46:27;974.1;;;11.3;59.1
68873;BME280;55907;50.806;12.882;2022-12-20T12:49:27;974.1;;;11.4;58.9
68873;BME280;55907;50.806;12.882;2022-12-20T12:52:38;974.1;;;11.4;58.5
68873;BME280;55907;50.806;12.882;2022-12-20T12:55:33;974.1;;;11.5;58.4
68873;BME280;55907;50.806;12.882;2022-12-20T12:58:33;974.1;;;11.5;58.2
68873;BME280;55907;50.806;12.882;2022-12-20T13:04:52;973.9;;;11.5;58.3
68873;BME280;55907;50.806;12.882;2022-12-20T13:07:41;973.8;;;11.4;58.3
68873;BME280;55907;50.806;12.882;2022-12-20T13:10:56;973.8;;;11.3;58.3
68873;BME280;55907;50.806;12.882;2022-12-20T13:13:38;973.9;;;11.2;58.5
68873;BME280;55907;50.806;12.882;2022-12-20T13:16:40;973.9;;;11.1;58.5
68873;BME280;55907;50.806;12.882;2022-12-20T13:19:48;973.8;;;11.1;58.5
68873;BME280;55907;50.806;12.882;2022-12-20T13:25:46;973.7;;;11.2;58.7
68873;BME280;55907;50.806;12.882;2022-12-20T13:28:46;973.7;;;11.1;58.5
68873;BME280;55907;50.806;12.882;2022-12-20T13:31:47;973.7;;;11.1;58.5
68873;BME280;55907;50.806;12.882;2022-12-20T13:34:54;973.6;;;11.2;58.3
68873;BME280;55907;50.806;12.882;2022-12-20T13:37:52;973.6;;;11.2;58.0
68873;BME280;55907;50.806;12.882;2022-12-20T13:43:55;973.8;;;11.2;58.6
68873;BME280;55907;50.806;12.882;2022-12-20T13:47:00;973.8;;;10.8;59.3
68873;BME280;55907;50.806;12.882;2022-12-20T13:49:59;973.7;;;10.5;60.0
68873;BME280;55907;50.806;12.882;2022-12-20T13:52:58;973.7;;;10.2;60.5
68873;BME280;55907;50.806;12.882;2022-12-20T13:56:19;973.7;;;9.9;61.0
68873;BME280;55907;50.806;12.882;2022-12-20T13:59:05;973.7;;;9.6;61.8
68873;BME280;55907;50.806;12.882;2022-12-20T14:02:09;973.7;;;9.3;62.3
68873;BME280;55907;50.806;12.882;2022-12-20T14:05:06;973.8;;;9.1;62.7
68873;BME280;55907;50.806;12.882;2022-12-20T14:08:08;973.7;;;8.9;63.3
68873;BME280;55907;50.806;12.882;2022-12-20T14:11:09;973.7;;;8.8;63.6
68873;BME280;55907;50.806;12.882;2022-12-20T14:17:14;973.6;;;8.5;64.3
68873;BME280;55907;50.806;12.882;2022-12-20T14:20:14;973.6;;;8.4;64.6
68873;BME280;55907;50.806;12.882;2022-12-20T14:23:15;973.4;;;8.3;64.9
68873;BME280;55907;50.806;12.882;2022-12-20T14:26:16;973.4;;;8.1;65.2
68873;BME280;55907;50.806;12.882;2022-12-20T14:29:18;973.4;;;8.0;65.5
68873;BME280;55907;50.806;12.882;2022-12-20T14:32:18;973.5;;;7.9;65.8
68873;BME280;55907;50.806;12.882;2022-12-20T14:35:19;973.4;;;7.9;66.3
68873;BME280;55907;50.806;12.882;2022-12-20T14:38:23;973.4;;;7.7;66.9
68873;BME280;55907;50.806;12.882;2022-12-20T14:41:31;973.4;;;7.8;67.4
68873;BME280;55907;50.806;12.882;2022-12-20T14:44:25;973.4;;;7.8;67.9
68873;BME280;55907;50.806;12.882;2022-12-20T14:47:26;973.4;;;7.9;67.7
68873;BME280;55907;50.806;12.882;2022-12-20T14:50:30;973.3;;;7.8;67.8
68873;BME280;55907;50.806;12.882;2022-12-20T14:53:28;973.3;;;7.6;68.1
68873;BME280;55907;50.806;12.882;2022-12-20T14:56:30;973.4;;;7.6;68.2
68873;BME280;55907;50.806;12.882;2022-12-20T14:59:31;973.5;;;7.6;67.8
68873;BME280;55907;50.806;12.882;2022-12-20T15:02:36;973.4;;;7.6;67.9
68873;BME280;55907;50.806;12.882;2022-12-20T15:05:36;973.4;;;7.5;67.9
68873;BME280;55907;50.806;12.882;2022-12-20T15:08:36;973.4;;;7.5;67.8
68873;BME280;55907;50.806;12.882;2022-12-20T15:11:37;973.4;;;7.4;67.6
68873;BME280;55907;50.806;12.882;2022-12-20T15:14:39;973.6;;;7.4;67.6
68873;BME280;55907;50.806;12.882;2022-12-20T15:17:40;973.6;;;7.4;67.7
68873;BME280;55907;50.806;12.882;2022-12-20T15:20:43;973.7;;;7.4;67.8
68873;BME280;55907;50.806;12.882;2022-12-20T15:23:45;973.6;;;7.4;68.0
68873;BME280;55907;50.806;12.882;2022-12-20T15:26:45;973.6;;;7.3;68.9
68873;BME280;55907;50.806;12.882;2022-12-20T15:29:46;973.5;;;7.1;70.1
68873;BME280;55907;50.806;12.882;2022-12-20T15:32:48;973.5;;;7.1;70.3
68873;BME280;55907;50.806;12.882;2022-12-20T15:35:49;973.4;;;7.0;70.3
68873;BME280;55907;50.806;12.882;2022-12-20T15:38:51;973.4;;;6.9;70.6
68873;BME280;55907;50.806;12.882;2022-12-20T15:41:52;973.4;;;6.8;70.9
68873;BME280;55907;50.806;12.882;2022-12-20T15:44:54;973.3;;;6.8;70.7
68873;BME280;55907;50.806;12.882;2022-12-20T15:47:55;973.2;;;6.8;71.3
68873;BME280;55907;50.806;12.882;2022-12-20T15:50:58;973.2;;;6.8;71.5
68873;BME280;55907;50.806;12.882;2022-12-20T15:54:00;973.2;;;6.8;71.7
68873;BME280;55907;50.806;12.882;2022-12-20T15:57:02;973.1;;;6.7;72.1
68873;BME280;55907;50.806;12.882;2022-12-20T16:00:02;973.2;;;6.7;72.7
68873;BME280;55907;50.806;12.882;2022-12-20T16:03:03;973.1;;;6.6;73.2
68873;BME280;55907;50.806;12.882;2022-12-20T16:06:05;973.2;;;6.6;73.8
68873;BME280;55907;50.806;12.882;2022-12-20T16:09:06;973.3;;;6.6;73.5
68873;BME280;55907;50.806;12.882;2022-12-20T16:12:12;973.3;;;6.6;73.8
68873;BME280;55907;50.806;12.882;2022-12-20T16:15:17;973.3;;;6.6;73.9
68873;BME280;55907;50.806;12.882;2022-12-20T16:18:11;973.3;;;6.6;74.2
68873;BME280;55907;50.806;12.882;2022-12-20T16:21:15;973.3;;;6.6;73.7
68873;BME280;55907;50.806;12.882;2022-12-20T16:24:16;973.2;;;6.6;73.5
68873;BME280;55907;50.806;12.882;2022-12-20T16:27:16;973.2;;;6.7;73.2
68873;BME280;55907;50.806;12.882;2022-12-20T16:30:17;973.2;;;6.6;73.3
68873;BME280;55907;50.806;12.882;2022-12-20T16:33:19;973.2;;;6.5;73.7
68873;BME280;55907;50.806;12.882;2022-12-20T16:36:21;973.1;;;6.4;74.1
68873;BME280;55907;50.806;12.882;2022-12-20T16:39:21;973.2;;;6.4;74.3
68873;BME280;55907;50.806;12.882;2022-12-20T16:42:23;973.2;;;6.3;75.0
68873;BME280;55907;50.806;12.882;2022-12-20T16:45:27;973.1;;;6.5;74.9
68873;BME280;55907;50.806;12.882;2022-12-20T16:48:26;973.1;;;6.7;74.6
68873;BME280;55907;50.806;12.882;2022-12-20T16:51:29;973.0;;;6.8;74.2
68873;BME280;55907;50.806;12.882;2022-12-20T16:54:29;973.0;;;6.8;74.1
68873;BME280;55907;50.806;12.882;2022-12-20T16:57:31;973.1;;;6.8;73.9
68873;BME280;55907;50.806;12.882;2022-12-20T17:00:32;973.1;;;6.7;74.4
68873;BME280;55907;50.806;12.882;2022-12-20T17:03:34;973.2;;;6.8;73.6
68873;BME280;55907;50.806;12.882;2022-12-20T17:06:35;973.1;;;6.8;73.1
68873;BME280;55907;50.806;12.882;2022-12-20T17:09:37;973.0;;;6.9;72.5
68873;BME280;55907;50.806;12.882;2022-12-20T17:12:38;972.8;;;7.1;71.4
68873;BME280;55907;50.806;12.882;2022-12-20T17:15:40;972.8;;;7.1;70.8
68873;BME280;55907;50.806;12.882;2022-12-20T17:18:43;972.8;;;7.1;71.3
68873;BME280;55907;50.806;12.882;2022-12-20T17:21:46;972.8;;;7.0;71.5
68873;BME280;55907;50.806;12.882;2022-12-20T17:24:44;972.7;;;6.9;71.0
68873;BME280;55907;50.806;12.882;2022-12-20T17:27:46;972.8;;;6.8;70.8
68873;BME280;55907;50.806;12.882;2022-12-20T17:30:47;972.8;;;6.7;71.2
68873;BME280;55907;50.806;12.882;2022-12-20T17:33:49;972.8;;;6.6;71.4
68873;BME280;55907;50.806;12.882;2022-12-20T17:36:52;972.8;;;6.6;71.5
68873;BME280;55907;50.806;12.882;2022-12-20T17:39:52;972.8;;;6.6;71.4
68873;BME280;55907;50.806;12.882;2022-12-20T17:42:53;972.6;;;6.6;71.3
68873;BME280;55907;50.806;12.882;2022-12-20T17:45:55;972.7;;;6.6;71.4
68873;BME280;55907;50.806;12.882;2022-12-20T17:48:57;972.8;;;6.6;71.4
68873;BME280;55907;50.806;12.882;2022-12-20T17:51:58;972.8;;;6.5;70.9